CMA CGM Kingfish — A8YW9 — position and weather

sailwx.info

Track history (hours):
 
Tides and Currents Weather Stations Pressure Air Temp Water Temp Dewpoint Dewpoint Depression Visibility Wind Speed Wind Dir Waves Ship Positions

CMA CGM Kingfish

Last reported at 2016-May-18 03:27 UTC. Time now 2016-May-30 12:32 UTC.
Position N 26°59' W 079°47'.
Warning: this ship's position is 12 days out of date.

Length 294 m; draft 10.6 m.

Type: Ship (hazmat cat A). MMSI: 636015147.

Date/timePositionNaut miles runAvg speedWind from/ knotsBaromVisibWave heightAir tempDewpointWater temp
2016-May-18 03:27N 26°59' W 079°47'1617.2
2016-May-18 02:30N 26°43' W 079°47'1616.6
2016-May-18 01:33N 26°27' W 079°47'1616.3
2016-May-18 00:33N 26°11' W 079°53'1716.7
2016-May-17 23:33N 25°56' W 080°00'13 9.1
2016-May-17 22:05N 25°46' W 080°10'1 0.6
2016-May-17 20:32N 25°46' W 080°09'0 0.0
2016-May-17 19:33N 25°46' W 080°09'0 0.0
2016-May-17 18:33N 25°46' W 080°09'0 0.0
2016-May-17 17:33N 25°46' W 080°09'0 0.0
2016-May-17 16:33N 25°46' W 080°09'0 0.0
2016-May-17 15:33N 25°46' W 080°09'0 0.0
2016-May-17 14:30N 25°46' W 080°09'0 0.0
2016-May-17 13:16N 25°46' W 080°09'0 0.0
2016-May-17 12:33N 25°46' W 080°09'0 0.0
2016-May-17 11:33N 25°46' W 080°09'4 4.4
2016-May-17 10:33N 25°46' W 080°04'5 4.5
2016-May-17 09:33N 25°43' W 080°01'9 9.1
2016-May-17 08:33N 25°34' W 080°01'  
2016-May-13 06:09N 28°35' W 093°29'3417.2
2016-May-13 04:11N 28°52' W 094°03'1117.6
2016-May-13 03:33N 28°54' W 094°15'1614.3
2016-May-13 02:25N 29°07' W 094°26'1615.3
2016-May-13 01:22N 29°19' W 094°39'1112.8
2016-May-13 00:32N 29°24' W 094°49'1212.1
2016-May-12 23:32N 29°35' W 094°56'4 3.1
2016-May-12 22:08N 29°37' W 095°01'0 0.0
2016-May-12 21:29N 29°37' W 095°01'0 0.0
2016-May-12 19:08N 29°37' W 095°01'0 0.0
2016-May-12 18:17N 29°37' W 095°01'0 0.0
2016-May-12 16:17N 29°37' W 095°01'0 0.0
2016-May-12 12:08N 29°37' W 095°01'0 0.0
2016-May-12 11:29N 29°37' W 095°01'0 0.0
2016-May-12 10:17N 29°37' W 095°01'0 0.0
2016-May-12 09:29N 29°37' W 095°01'0 0.0
2016-May-12 07:23N 29°37' W 095°01'0 0.0
2016-May-12 04:32N 29°37' W 095°01'0 0.0
2016-May-12 03:26N 29°37' W 095°01'0 0.0
2016-May-12 02:26N 29°37' W 095°01'0 0.0
2016-May-12 00:29N 29°37' W 095°01'0 0.0
2016-May-11 21:17N 29°37' W 095°01'0 0.0
2016-May-11 20:26N 29°37' W 095°01'0 0.0
2016-May-11 19:29N 29°37' W 095°01'0 0.1
2016-May-11 17:33N 29°37' W 095°01'3 2.8
2016-May-11 16:33N 29°37' W 094°57'1110.2
2016-May-11 15:31N 29°28' W 094°51'  
Track history (hours):
 
Tides and Currents Weather Stations Pressure Air Temp Water Temp Dewpoint Dewpoint Depression Visibility Wind Speed Wind Dir Waves Ship Positions

CMA CGM Kingfish

Last reported at 2016-May-18 03:27 UTC. Time now 2016-May-30 12:32 UTC.
Position N 26°59' W 079°47'.
Warning: this ship's position is 12 days out of date.

Length 294 m; draft 10.6 m.

Type: Ship (hazmat cat A). MMSI: 636015147.

Date/timePositionNaut miles runAvg speedWind from/ knotsBaromVisibWave heightAir tempDewpointWater temp
2016-May-18 03:27N 26°59' W 079°47'1617.2
2016-May-18 02:30N 26°43' W 079°47'1616.6
2016-May-18 01:33N 26°27' W 079°47'1616.3
2016-May-18 00:33N 26°11' W 079°53'1716.7
2016-May-17 23:33N 25°56' W 080°00'13 9.1
2016-May-17 22:05N 25°46' W 080°10'1 0.6
2016-May-17 20:32N 25°46' W 080°09'0 0.0
2016-May-17 19:33N 25°46' W 080°09'0 0.0
2016-May-17 18:33N 25°46' W 080°09'0 0.0
2016-May-17 17:33N 25°46' W 080°09'0 0.0
2016-May-17 16:33N 25°46' W 080°09'0 0.0
2016-May-17 15:33N 25°46' W 080°09'0 0.0
2016-May-17 14:30N 25°46' W 080°09'0 0.0
2016-May-17 13:16N 25°46' W 080°09'0 0.0
2016-May-17 12:33N 25°46' W 080°09'0 0.0
2016-May-17 11:33N 25°46' W 080°09'4 4.4
2016-May-17 10:33N 25°46' W 080°04'5 4.5
2016-May-17 09:33N 25°43' W 080°01'9 9.1
2016-May-17 08:33N 25°34' W 080°01'  
2016-May-13 06:09N 28°35' W 093°29'3417.2
2016-May-13 04:11N 28°52' W 094°03'1117.6
2016-May-13 03:33N 28°54' W 094°15'1614.3
2016-May-13 02:25N 29°07' W 094°26'1615.3
2016-May-13 01:22N 29°19' W 094°39'1112.8
2016-May-13 00:32N 29°24' W 094°49'1212.1
2016-May-12 23:32N 29°35' W 094°56'4 3.1
2016-May-12 22:08N 29°37' W 095°01'0 0.0
2016-May-12 21:29N 29°37' W 095°01'0 0.0
2016-May-12 19:08N 29°37' W 095°01'0 0.0
2016-May-12 18:17N 29°37' W 095°01'0 0.0
2016-May-12 16:17N 29°37' W 095°01'0 0.0
2016-May-12 12:08N 29°37' W 095°01'0 0.0
2016-May-12 11:29N 29°37' W 095°01'0 0.0
2016-May-12 10:17N 29°37' W 095°01'0 0.0
2016-May-12 09:29N 29°37' W 095°01'0 0.0
2016-May-12 07:23N 29°37' W 095°01'0 0.0
2016-May-12 04:32N 29°37' W 095°01'0 0.0
2016-May-12 03:26N 29°37' W 095°01'0 0.0
2016-May-12 02:26N 29°37' W 095°01'0 0.0
2016-May-12 00:29N 29°37' W 095°01'0 0.0
2016-May-11 21:17N 29°37' W 095°01'0 0.0
2016-May-11 20:26N 29°37' W 095°01'0 0.0
2016-May-11 19:29N 29°37' W 095°01'0 0.1
2016-May-11 17:33N 29°37' W 095°01'3 2.8
2016-May-11 16:33N 29°37' W 094°57'1110.2
2016-May-11 15:31N 29°28' W 094°51'  

Dump ship's entire track history